Koniz, Switzerland
Current Conditions -  °F | °C
As of 2:20 PM on Tuesday 21 Oct 2014 (Local Time) from LSZB Reporting Station
Broken Clouds Broken Clouds  
Wind Chill: 63°   Ceiling: 5000
Heat Index: 63°   Visibility: 6mi
Dew Point: 52°   Wind: 9mph
Humidity: 68%   Direction: 260°W
Pressure: 29.97"   Gusts: NA
Location:  46.93°N, 7.42°E
Report Text: LSZB 211220Z 26008KT 220V290 9999 FEW035 BKN050 17/11 Q1015 NOSIG
Loading
Personal Weather Stations






























Interactive Weather Map
Tropical Storm Tracking
New forecast layout! Learn more

10-Day Weather Forecast

Advertisements
Track Severe Weather on mobile